Time;durP1;ratioP1;P1;durP2;ratioP2;P2;SDS_P1;SDS_P2;PMS_P1;PMS_P2;Temp;Humidity;BMP_temperature;BMP_pressure;BME280_temperature;BME280_humidity;BME280_pressure;Samples;Min_cycle;Max_cycle;Signal;HPM_P1;HPM_P2
2024/04/19 00:01:55;;;;;;;5.85;2.63;;;;;;;;;;5519642;25;20359;-73
2024/04/19 00:04:21;;;;;;;4.55;2.35;;;;;;;;;;5520048;25;20236;-70
2024/04/19 00:06:46;;;;;;;8.95;2.75;;;;;;;;;;5528984;25;20623;-74
2024/04/19 00:09:11;;;;;;;11.15;2.85;;;;;;;;;;5476266;26;20252;-74
2024/04/19 00:11:37;;;;;;;4.90;2.90;;;;;;;;;;5517784;25;20232;-75
2024/04/19 00:14:02;;;;;;;9.90;3.00;;;;;;;;;;5519494;25;20755;-76
2024/04/19 00:16:28;;;;;;;6.35;2.80;;;;;;;;;;5490642;25;20252;-77
2024/04/19 00:18:54;;;;;;;6.32;3.05;;;;;;;;;;5529753;25;20252;-77
2024/04/19 00:21:19;;;;;;;6.63;2.70;;;;;;;;;;5503753;25;20240;-77
2024/04/19 00:23:45;;;;;;;6.35;2.90;;;;;;;;;;5480793;26;20251;-74
2024/04/19 00:26:10;;;;;;;11.20;2.70;;;;;;;;;;5504804;25;20569;-77
2024/04/19 00:28:39;;;;;;;6.67;3.17;;;;;;;;;;5503790;25;20290;-77
2024/04/19 00:31:05;;;;;;;3.65;2.80;;;;;;;;;;5519229;25;20239;-76
2024/04/19 00:33:31;;;;;;;4.63;3.05;;;;;;;;;;5509388;25;20244;-77
2024/04/19 00:35:56;;;;;;;7.07;2.80;;;;;;;;;;5497336;25;20632;-76
2024/04/19 00:38:22;;;;;;;6.97;3.42;;;;;;;;;;5506572;25;20845;-76
2024/04/19 00:40:47;;;;;;;10.52;3.55;;;;;;;;;;5502915;25;20355;-75
2024/04/19 00:43:12;;;;;;;8.57;3.50;;;;;;;;;;5512423;25;20256;-77
2024/04/19 00:45:39;;;;;;;8.13;4.00;;;;;;;;;;5516347;25;20239;-79
2024/04/19 00:48:13;;;;;;;8.27;4.15;;;;;;;;;;5492421;25;20235;-78
2024/04/19 00:50:40;;;;;;;9.03;4.43;;;;;;;;;;5519937;26;20235;-79
2024/04/19 00:53:06;;;;;;;10.83;5.07;;;;;;;;;;5519079;25;20266;-78
2024/04/19 00:55:33;;;;;;;11.18;5.13;;;;;;;;;;5502369;25;20240;-75
2024/04/19 00:57:59;;;;;;;11.20;4.97;;;;;;;;;;5520469;25;20235;-77
2024/04/19 01:00:25;;;;;;;9.23;5.07;;;;;;;;;;5498816;26;20638;-74
2024/04/19 01:02:54;;;;;;;9.23;4.90;;;;;;;;;;5517702;25;20327;-74
2024/04/19 01:05:20;;;;;;;11.10;5.17;;;;;;;;;;5510171;26;20231;-75
2024/04/19 01:07:47;;;;;;;10.50;5.67;;;;;;;;;;5514877;25;20343;-78
2024/04/19 01:10:13;;;;;;;12.13;6.73;;;;;;;;;;5518177;25;20747;-77
2024/04/19 01:12:39;;;;;;;12.37;5.80;;;;;;;;;;5510966;25;20694;-76
2024/04/19 01:15:17;;;;;;;10.90;6.00;;;;;;;;;;5479097;26;20349;-77
2024/04/19 01:17:42;;;;;;;12.50;6.23;;;;;;;;;;5515732;25;20255;-73
2024/04/19 01:20:08;;;;;;;11.20;7.20;;;;;;;;;;5506771;26;20345;-77
2024/04/19 01:22:34;;;;;;;9.47;6.50;;;;;;;;;;5519465;25;20278;-75
2024/04/19 01:25:00;;;;;;;14.05;7.55;;;;;;;;;;5490886;25;20235;-77
2024/04/19 01:27:25;;;;;;;11.82;6.90;;;;;;;;;;5513115;26;20279;-78
2024/04/19 01:29:50;;;;;;;14.15;7.15;;;;;;;;;;5499004;25;20266;-77
2024/04/19 01:32:16;;;;;;;12.47;6.70;;;;;;;;;;5505821;25;20230;-77
2024/04/19 01:34:41;;;;;;;14.50;7.20;;;;;;;;;;5484232;26;20247;-77
2024/04/19 01:37:07;;;;;;;14.97;6.97;;;;;;;;;;5510997;26;20266;-78
2024/04/19 01:39:32;;;;;;;12.77;7.90;;;;;;;;;;5513873;25;20256;-77
2024/04/19 01:41:58;;;;;;;10.57;7.83;;;;;;;;;;5517929;25;20240;-78
2024/04/19 01:44:23;;;;;;;15.03;8.17;;;;;;;;;;5519765;25;20779;-77
2024/04/19 01:46:49;;;;;;;14.20;8.20;;;;;;;;;;5517315;25;20270;-75
2024/04/19 01:49:14;;;;;;;17.47;8.40;;;;;;;;;;5506444;25;20228;-77
2024/04/19 01:51:40;;;;;;;15.43;8.20;;;;;;;;;;5499020;25;20308;-76
2024/04/19 01:54:05;;;;;;;13.17;9.33;;;;;;;;;;5515561;25;20244;-76
2024/04/19 01:56:31;;;;;;;16.43;9.43;;;;;;;;;;5511536;25;20278;-76
2024/04/19 01:58:56;;;;;;;14.90;9.30;;;;;;;;;;5459865;26;20784;-76
2024/04/19 02:01:22;;;;;;;14.53;9.23;;;;;;;;;;5519158;25;20338;-76
2024/04/19 02:03:47;;;;;;;13.37;9.77;;;;;;;;;;5517354;26;20262;-75
2024/04/19 02:06:14;;;;;;;13.02;9.13;;;;;;;;;;5514813;25;20243;-75
2024/04/19 02:08:41;;;;;;;18.03;9.43;;;;;;;;;;5515920;25;20239;-72
2024/04/19 02:11:07;;;;;;;17.90;9.93;;;;;;;;;;5527708;25;20242;-74
2024/04/19 02:13:32;;;;;;;13.30;10.03;;;;;;;;;;5487638;26;20607;-75
2024/04/19 02:15:58;;;;;;;15.50;9.43;;;;;;;;;;5516977;26;20419;-77
2024/04/19 02:18:24;;;;;;;15.07;9.52;;;;;;;;;;5514479;25;20299;-75
2024/04/19 02:20:49;;;;;;;13.75;9.88;;;;;;;;;;5520530;25;20304;-76
2024/04/19 02:23:35;;;;;;;17.98;10.45;;;;;;;;;;5520007;25;20282;-77
2024/04/19 02:26:01;;;;;;;16.58;9.50;;;;;;;;;;5499369;26;20293;-75
2024/04/19 02:31:10;;;;;;;14.63;9.98;;;;;;;;;;5516922;25;20236;-74
2024/04/19 02:33:36;;;;;;;17.48;9.68;;;;;;;;;;5517160;25;20269;-77
2024/04/19 02:36:01;;;;;;;17.58;9.93;;;;;;;;;;5504011;25;20236;-77
2024/04/19 02:38:27;;;;;;;14.00;9.68;;;;;;;;;;5509362;25;20319;-76
2024/04/19 02:40:52;;;;;;;14.65;10.40;;;;;;;;;;5474592;26;20240;-76
2024/04/19 02:43:18;;;;;;;15.50;10.05;;;;;;;;;;5532053;25;20315;-74
2024/04/19 02:45:43;;;;;;;12.57;9.70;;;;;;;;;;5517347;25;20232;-75
2024/04/19 02:48:09;;;;;;;14.52;9.40;;;;;;;;;;5513072;25;20231;-74
2024/04/19 02:50:34;;;;;;;13.77;9.80;;;;;;;;;;5477396;26;20249;-75
2024/04/19 02:53:00;;;;;;;17.05;10.77;;;;;;;;;;5525798;25;20292;-75
2024/04/19 02:55:26;;;;;;;14.93;9.70;;;;;;;;;;5507788;25;20251;-75
2024/04/19 02:57:51;;;;;;;14.25;10.25;;;;;;;;;;5475295;26;20247;-76
2024/04/19 03:00:17;;;;;;;17.15;10.57;;;;;;;;;;5504417;25;20270;-73
2024/04/19 03:02:42;;;;;;;13.05;10.60;;;;;;;;;;5516769;25;20681;-74
2024/04/19 03:05:08;;;;;;;11.85;10.13;;;;;;;;;;5521953;25;20236;-74
2024/04/19 03:07:33;;;;;;;13.70;9.75;;;;;;;;;;5510387;26;20232;-75
2024/04/19 03:09:59;;;;;;;12.35;9.95;;;;;;;;;;5512447;26;20708;-75
2024/04/19 03:12:24;;;;;;;12.30;9.48;;;;;;;;;;5498604;25;20830;-75
2024/04/19 03:14:50;;;;;;;11.32;9.00;;;;;;;;;;5530624;25;20258;-74
2024/04/19 03:17:16;;;;;;;12.88;9.20;;;;;;;;;;5517612;26;20244;-72
2024/04/19 03:19:41;;;;;;;14.55;8.63;;;;;;;;;;5516882;25;20290;-75
2024/04/19 03:22:08;;;;;;;10.68;8.07;;;;;;;;;;5516918;26;20605;-75
2024/04/19 03:24:34;;;;;;;12.18;8.02;;;;;;;;;;5510541;25;20279;-76
2024/04/19 03:27:01;;;;;;;10.10;7.22;;;;;;;;;;5515222;26;20236;-75
2024/04/19 03:29:26;;;;;;;10.70;7.28;;;;;;;;;;5516828;25;20266;-77
2024/04/19 03:31:51;;;;;;;11.23;7.30;;;;;;;;;;5479699;26;20578;-75
2024/04/19 03:34:17;;;;;;;8.95;6.80;;;;;;;;;;5536507;25;20266;-77
2024/04/19 03:36:43;;;;;;;9.50;6.93;;;;;;;;;;5498629;25;20350;-75
2024/04/19 03:39:09;;;;;;;9.15;6.57;;;;;;;;;;5492886;25;20275;-76
2024/04/19 03:41:37;;;;;;;9.88;6.47;;;;;;;;;;5515518;26;20240;-77
2024/04/19 03:46:47;;;;;;;6.50;5.65;;;;;;;;;;5522771;25;20285;-76
2024/04/19 03:49:13;;;;;;;7.03;6.27;;;;;;;;;;5519856;25;20985;-74
2024/04/19 03:51:38;;;;;;;7.68;6.13;;;;;;;;;;5519813;26;20240;-76
2024/04/19 03:54:04;;;;;;;8.65;5.30;;;;;;;;;;5515022;25;20227;-76
2024/04/19 03:56:31;;;;;;;6.65;5.93;;;;;;;;;;5519362;25;20239;-75
2024/04/19 03:58:56;;;;;;;8.18;5.47;;;;;;;;;;5516233;26;20251;-76
2024/04/19 04:01:22;;;;;;;6.63;5.70;;;;;;;;;;5490590;26;20274;-76
2024/04/19 04:03:52;;;;;;;6.60;5.78;;;;;;;;;;5518492;25;20282;-78
2024/04/19 04:06:17;;;;;;;9.80;7.10;;;;;;;;;;5513165;25;20278;-75
2024/04/19 04:08:45;;;;;;;9.25;6.78;;;;;;;;;;5518548;25;20307;-76
2024/04/19 04:11:12;;;;;;;7.97;6.43;;;;;;;;;;5509777;25;20271;-76
2024/04/19 04:13:41;;;;;;;7.90;6.15;;;;;;;;;;5517869;26;20232;-74
2024/04/19 04:16:08;;;;;;;6.90;6.07;;;;;;;;;;5482237;26;20267;-75
2024/04/19 04:18:34;;;;;;;10.95;6.88;;;;;;;;;;5512140;25;20286;-75
2024/04/19 04:21:00;;;;;;;7.35;6.65;;;;;;;;;;5463326;26;20407;-72
2024/04/19 04:23:27;;;;;;;8.90;6.43;;;;;;;;;;5509263;26;20231;-73
2024/04/19 04:25:53;;;;;;;7.70;6.93;;;;;;;;;;5488170;25;20387;-76
2024/04/19 04:28:18;;;;;;;8.73;7.13;;;;;;;;;;5477499;25;20821;-77
2024/04/19 04:30:44;;;;;;;7.30;6.38;;;;;;;;;;5502257;25;20271;-75
2024/04/19 04:33:09;;;;;;;8.57;6.95;;;;;;;;;;5469776;25;20255;-74
2024/04/19 04:35:38;;;;;;;7.68;6.78;;;;;;;;;;5516699;25;20380;-76
2024/04/19 04:38:05;;;;;;;8.05;6.88;;;;;;;;;;5517574;25;20227;-73
2024/04/19 04:40:32;;;;;;;8.55;6.97;;;;;;;;;;5514286;25;20305;-73
2024/04/19 04:42:58;;;;;;;9.35;7.25;;;;;;;;;;5518429;25;20303;-74
2024/04/19 04:45:24;;;;;;;9.77;6.78;;;;;;;;;;5518190;25;20678;-76
2024/04/19 04:47:49;;;;;;;9.07;6.63;;;;;;;;;;5522700;25;20282;-78
2024/04/19 04:50:15;;;;;;;8.32;7.47;;;;;;;;;;5504336;26;20338;-78
2024/04/19 04:52:40;;;;;;;8.43;6.95;;;;;;;;;;5502679;25;20315;-76
2024/04/19 04:55:06;;;;;;;6.97;6.28;;;;;;;;;;5486149;26;20244;-78
2024/04/19 04:57:32;;;;;;;6.63;6.00;;;;;;;;;;5512039;25;20267;-78
2024/04/19 04:59:58;;;;;;;7.15;6.45;;;;;;;;;;5519085;25;20243;-78
2024/04/19 05:02:23;;;;;;;7.68;6.60;;;;;;;;;;5520198;25;20339;-80
2024/04/19 05:04:49;;;;;;;7.43;6.70;;;;;;;;;;5520963;25;20231;-82
2024/04/19 05:07:14;;;;;;;7.10;6.40;;;;;;;;;;5506541;25;20248;-79
2024/04/19 05:09:40;;;;;;;8.52;6.82;;;;;;;;;;5498146;25;20232;-80
2024/04/19 05:12:06;;;;;;;7.18;6.47;;;;;;;;;;5519539;25;20235;-78
2024/04/19 05:14:31;;;;;;;9.15;6.32;;;;;;;;;;5521659;25;20334;-79
2024/04/19 05:16:57;;;;;;;7.50;6.10;;;;;;;;;;5488633;26;20647;-78
2024/04/19 05:19:23;;;;;;;6.35;5.70;;;;;;;;;;5512080;25;20585;-78
2024/04/19 05:21:48;;;;;;;6.30;5.70;;;;;;;;;;5518953;25;20522;-76
2024/04/19 05:24:14;;;;;;;6.65;6.03;;;;;;;;;;5513116;25;20266;-76
2024/04/19 05:26:39;;;;;;;6.90;6.20;;;;;;;;;;5509683;25;20300;-77
2024/04/19 05:29:04;;;;;;;6.35;5.70;;;;;;;;;;5512630;25;20247;-76
2024/04/19 05:31:30;;;;;;;7.40;6.18;;;;;;;;;;5515141;25;20239;-78
2024/04/19 05:33:55;;;;;;;7.43;6.43;;;;;;;;;;5512548;25;20231;-73
2024/04/19 05:36:21;;;;;;;6.85;6.00;;;;;;;;;;5512837;25;20778;-79
2024/04/19 05:38:46;;;;;;;7.45;6.50;;;;;;;;;;5527174;25;20227;-78
2024/04/19 05:41:12;;;;;;;7.30;6.18;;;;;;;;;;5469932;26;20319;-77
2024/04/19 05:43:38;;;;;;;8.13;6.65;;;;;;;;;;5512958;25;20236;-78
2024/04/19 05:46:03;;;;;;;7.70;6.90;;;;;;;;;;5480260;25;20339;-76
2024/04/19 05:48:29;;;;;;;11.88;6.75;;;;;;;;;;5524275;25;20238;-77
2024/04/19 05:50:55;;;;;;;9.60;6.55;;;;;;;;;;5497408;25;20246;-77
2024/04/19 05:53:20;;;;;;;8.27;6.85;;;;;;;;;;5516675;25;20251;-77
2024/04/19 05:55:46;;;;;;;8.32;5.93;;;;;;;;;;5514404;25;20339;-75
2024/04/19 05:58:12;;;;;;;7.47;5.97;;;;;;;;;;5518472;25;20278;-77
2024/04/19 06:00:38;;;;;;;7.47;6.45;;;;;;;;;;5513123;25;20239;-78
2024/04/19 06:03:04;;;;;;;7.40;6.18;;;;;;;;;;5518406;25;20698;-77
2024/04/19 06:05:29;;;;;;;7.53;6.05;;;;;;;;;;5540698;25;20251;-78
2024/04/19 06:07:55;;;;;;;11.57;6.50;;;;;;;;;;5517180;25;20235;-77
2024/04/19 06:10:21;;;;;;;9.82;6.68;;;;;;;;;;5523309;26;20901;-78
2024/04/19 06:12:46;;;;;;;12.25;6.60;;;;;;;;;;5479289;26;20239;-77
2024/04/19 06:15:12;;;;;;;10.13;6.10;;;;;;;;;;5524646;25;20291;-76
2024/04/19 06:17:37;;;;;;;8.15;5.93;;;;;;;;;;5521938;25;20235;-76
2024/04/19 06:20:03;;;;;;;7.97;5.47;;;;;;;;;;5518042;25;20263;-76
2024/04/19 06:22:29;;;;;;;7.25;5.90;;;;;;;;;;5515507;25;20239;-77
2024/04/19 06:24:56;;;;;;;10.60;6.10;;;;;;;;;;5518045;25;20278;-77
2024/04/19 06:27:22;;;;;;;9.85;5.57;;;;;;;;;;5524301;25;20230;-76
2024/04/19 06:29:49;;;;;;;11.05;5.72;;;;;;;;;;5523599;25;20584;-76
2024/04/19 06:32:15;;;;;;;8.75;5.28;;;;;;;;;;5518474;25;20251;-76
2024/04/19 06:34:40;;;;;;;10.65;5.30;;;;;;;;;;5514583;25;20292;-74
2024/04/19 06:37:06;;;;;;;9.32;5.28;;;;;;;;;;5482601;26;20235;-76
2024/04/19 06:39:31;;;;;;;11.00;5.00;;;;;;;;;;5479209;26;20303;-76
2024/04/19 06:41:58;;;;;;;9.43;4.50;;;;;;;;;;5514992;25;20479;-74
2024/04/19 06:44:24;;;;;;;8.23;5.68;;;;;;;;;;5533624;25;20236;-75
2024/04/19 06:46:50;;;;;;;9.07;4.72;;;;;;;;;;5519175;25;20251;-76
2024/04/19 06:49:15;;;;;;;14.30;5.03;;;;;;;;;;5517756;25;20240;-75
2024/04/19 06:51:40;;;;;;;12.57;4.68;;;;;;;;;;5507189;25;20223;-72
2024/04/19 06:54:06;;;;;;;13.73;4.72;;;;;;;;;;5516380;26;20275;-76
2024/04/19 06:56:31;;;;;;;8.52;4.30;;;;;;;;;;5515767;25;20231;-76
2024/04/19 06:58:57;;;;;;;9.35;4.07;;;;;;;;;;5516200;25;20747;-75
2024/04/19 07:01:23;;;;;;;10.80;4.10;;;;;;;;;;5518463;25;20227;-76
2024/04/19 07:03:51;;;;;;;9.73;4.10;;;;;;;;;;5517244;25;20232;-75
2024/04/19 07:06:17;;;;;;;12.00;4.25;;;;;;;;;;5520149;25;20359;-76
2024/04/19 07:08:42;;;;;;;11.80;4.53;;;;;;;;;;5526066;25;20290;-76
2024/04/19 07:11:08;;;;;;;8.95;3.95;;;;;;;;;;5523101;25;20337;-76
2024/04/19 07:13:34;;;;;;;10.00;3.92;;;;;;;;;;5518519;25;20746;-76
2024/04/19 07:16:00;;;;;;;14.85;4.55;;;;;;;;;;5517914;25;20232;-76
2024/04/19 07:18:25;;;;;;;11.27;3.95;;;;;;;;;;5515334;25;20323;-75
2024/04/19 07:20:52;;;;;;;13.48;4.00;;;;;;;;;;5470350;25;20256;-75
2024/04/19 07:23:18;;;;;;;16.75;3.92;;;;;;;;;;5521606;25;20634;-75
2024/04/19 07:25:44;;;;;;;13.27;3.20;;;;;;;;;;5521438;25;20753;-72
2024/04/19 07:28:09;;;;;;;14.93;3.08;;;;;;;;;;5514705;25;20237;-76
2024/04/19 07:30:36;;;;;;;11.05;2.85;;;;;;;;;;5485515;25;20910;-76
2024/04/19 07:33:02;;;;;;;9.70;2.38;;;;;;;;;;5518934;25;20239;-76
2024/04/19 07:35:27;;;;;;;15.88;2.38;;;;;;;;;;5513150;25;20228;-77
2024/04/19 07:37:53;;;;;;;13.02;2.20;;;;;;;;;;5514992;26;20247;-76
2024/04/19 07:40:18;;;;;;;18.95;2.65;;;;;;;;;;5519502;25;20274;-76
2024/04/19 07:42:45;;;;;;;10.68;1.95;;;;;;;;;;5520887;25;20227;-76
2024/04/19 07:45:11;;;;;;;13.00;2.22;;;;;;;;;;5517002;25;20240;-72
2024/04/19 07:47:37;;;;;;;12.75;2.17;;;;;;;;;;5512374;25;20789;-76
2024/04/19 07:50:03;;;;;;;12.65;1.83;;;;;;;;;;5518861;25;20230;-76
2024/04/19 07:52:29;;;;;;;15.52;2.08;;;;;;;;;;5524569;25;20261;-76
2024/04/19 07:54:54;;;;;;;10.88;1.83;;;;;;;;;;5500837;25;20314;-76
2024/04/19 07:57:19;;;;;;;12.73;1.77;;;;;;;;;;5521247;25;20259;-75
2024/04/19 07:59:45;;;;;;;9.68;1.35;;;;;;;;;;5518208;25;20299;-75
2024/04/19 08:02:10;;;;;;;13.48;1.70;;;;;;;;;;5488285;26;20307;-75
2024/04/19 08:04:36;;;;;;;11.60;2.10;;;;;;;;;;5516601;25;20695;-75
2024/04/19 08:07:01;;;;;;;11.60;1.83;;;;;;;;;;5484216;26;20728;-76
2024/04/19 08:09:27;;;;;;;11.05;1.73;;;;;;;;;;5486577;26;20637;-76
2024/04/19 08:11:53;;;;;;;13.13;1.90;;;;;;;;;;5514310;25;20594;-76
2024/04/19 08:14:18;;;;;;;12.48;2.13;;;;;;;;;;5520238;25;20265;-74
2024/04/19 08:16:43;;;;;;;10.80;1.70;;;;;;;;;;5521131;25;20248;-75
2024/04/19 08:19:10;;;;;;;7.80;1.33;;;;;;;;;;5521177;25;20286;-74
2024/04/19 08:21:36;;;;;;;7.00;1.67;;;;;;;;;;5487672;26;20750;-75
2024/04/19 08:24:03;;;;;;;9.90;1.42;;;;;;;;;;5519520;26;20251;-74
2024/04/19 08:26:28;;;;;;;9.18;1.38;;;;;;;;;;5526786;25;20239;-74
2024/04/19 08:28:54;;;;;;;11.82;1.10;;;;;;;;;;5519778;25;20305;-74
2024/04/19 08:31:19;;;;;;;6.05;1.00;;;;;;;;;;5521105;25;20351;-74
2024/04/19 08:33:45;;;;;;;6.28;0.98;;;;;;;;;;5521829;25;20328;-75
2024/04/19 08:36:11;;;;;;;4.05;0.85;;;;;;;;;;5495232;25;20603;-74
2024/04/19 08:38:36;;;;;;;7.60;0.93;;;;;;;;;;5516341;25;20274;-74
2024/04/19 08:41:03;;;;;;;6.00;0.90;;;;;;;;;;5487223;26;20243;-75
2024/04/19 08:43:33;;;;;;;7.78;1.20;;;;;;;;;;5494107;25;20283;-74
2024/04/19 08:46:01;;;;;;;8.32;1.17;;;;;;;;;;5520590;25;20239;-75
2024/04/19 08:48:27;;;;;;;8.35;1.20;;;;;;;;;;5464009;26;20251;-75
2024/04/19 08:50:55;;;;;;;7.55;1.00;;;;;;;;;;5520193;25;20236;-76
2024/04/19 08:53:21;;;;;;;7.65;1.15;;;;;;;;;;5522106;25;20366;-74
2024/04/19 08:55:48;;;;;;;8.75;1.23;;;;;;;;;;5523639;25;20343;-74
2024/04/19 08:58:14;;;;;;;4.85;0.93;;;;;;;;;;5524516;25;20784;-74
2024/04/19 09:00:40;;;;;;;6.95;1.15;;;;;;;;;;5494971;25;20246;-75
2024/04/19 09:03:06;;;;;;;6.70;1.00;;;;;;;;;;5520111;25;20368;-75
2024/04/19 09:05:31;;;;;;;10.52;1.25;;;;;;;;;;5523221;25;20291;-74
2024/04/19 09:07:57;;;;;;;9.55;0.82;;;;;;;;;;5491821;25;20334;-74
2024/04/19 09:10:22;;;;;;;4.63;0.73;;;;;;;;;;5491778;26;20244;-75
2024/04/19 09:12:47;;;;;;;7.60;1.02;;;;;;;;;;5503638;25;20581;-74
2024/04/19 09:15:13;;;;;;;7.65;1.80;;;;;;;;;;5491615;26;20694;-75
2024/04/19 09:17:39;;;;;;;7.00;0.90;;;;;;;;;;5516169;25;20982;-74
2024/04/19 09:20:05;;;;;;;10.68;1.17;;;;;;;;;;5490201;26;20281;-73
2024/04/19 09:22:31;;;;;;;6.07;0.85;;;;;;;;;;5483939;26;20240;-74
2024/04/19 09:24:57;;;;;;;4.03;0.85;;;;;;;;;;5508610;26;20274;-75
2024/04/19 09:27:23;;;;;;;8.38;0.88;;;;;;;;;;5519832;26;20240;-74
2024/04/19 09:29:52;;;;;;;7.68;1.10;;;;;;;;;;5543652;25;20228;-75
2024/04/19 09:32:22;;;;;;;7.40;0.90;;;;;;;;;;5489732;26;20727;-75
2024/04/19 09:34:48;;;;;;;6.38;0.90;;;;;;;;;;5494321;25;20247;-74
2024/04/19 09:37:15;;;;;;;3.97;1.00;;;;;;;;;;5521288;25;20232;-74
2024/04/19 09:39:40;;;;;;;6.43;1.10;;;;;;;;;;5543355;25;20598;-74
2024/04/19 09:42:08;;;;;;;9.85;0.82;;;;;;;;;;5518122;25;20247;-72
2024/04/19 09:44:34;;;;;;;7.72;1.00;;;;;;;;;;5521459;25;20235;-75
2024/04/19 09:47:04;;;;;;;4.28;0.73;;;;;;;;;;5487730;26;20330;-74
2024/04/19 09:49:31;;;;;;;4.95;0.90;;;;;;;;;;5500795;25;20233;-74
2024/04/19 09:51:57;;;;;;;3.67;0.63;;;;;;;;;;5513562;25;20243;-71
2024/04/19 09:54:27;;;;;;;3.42;0.40;;;;;;;;;;5519783;25;20335;-71
2024/04/19 09:56:57;;;;;;;3.47;0.70;;;;;;;;;;5530724;25;20239;-75
2024/04/19 09:59:26;;;;;;;4.57;1.08;;;;;;;;;;5506848;25;20228;-74
2024/04/19 10:01:53;;;;;;;5.75;0.70;;;;;;;;;;5508408;25;20228;-74
2024/04/19 10:04:20;;;;;;;2.42;0.60;;;;;;;;;;5519962;25;20235;-74
2024/04/19 10:06:47;;;;;;;1.77;0.32;;;;;;;;;;5522367;25;20243;-73
2024/04/19 10:09:17;;;;;;;3.63;0.43;;;;;;;;;;5521789;25;20301;-73
2024/04/19 10:11:44;;;;;;;3.10;0.60;;;;;;;;;;5538111;25;20624;-73
2024/04/19 10:14:10;;;;;;;5.05;0.60;;;;;;;;;;5515331;25;20283;-72
2024/04/19 10:16:37;;;;;;;5.88;0.60;;;;;;;;;;5537247;25;20586;-74
2024/04/19 10:19:03;;;;;;;2.38;0.40;;;;;;;;;;5519528;25;20283;-75
2024/04/19 10:21:28;;;;;;;4.90;0.68;;;;;;;;;;5539552;25;20582;-73
2024/04/19 10:23:57;;;;;;;3.25;0.65;;;;;;;;;;5502520;25;20770;-77
2024/04/19 10:26:23;;;;;;;6.10;0.65;;;;;;;;;;5466928;25;20728;-74
2024/04/19 10:28:50;;;;;;;1.65;0.50;;;;;;;;;;5488725;26;20768;-75
2024/04/19 10:31:17;;;;;;;5.20;0.80;;;;;;;;;;5499084;26;20244;-76
2024/04/19 10:33:45;;;;;;;4.53;0.73;;;;;;;;;;5516651;25;20290;-75
2024/04/19 10:36:10;;;;;;;2.55;0.68;;;;;;;;;;5515886;25;20238;-77
2024/04/19 10:38:38;;;;;;;4.40;0.40;;;;;;;;;;5507639;26;20258;-80
2024/04/19 10:41:04;;;;;;;4.43;0.70;;;;;;;;;;5498126;25;20246;-77
2024/04/19 10:43:31;;;;;;;5.30;0.28;;;;;;;;;;5481090;26;20715;-74
2024/04/19 10:45:57;;;;;;;1.63;0.32;;;;;;;;;;5515807;25;20277;-75
2024/04/19 10:48:23;;;;;;;0.50;0.20;;;;;;;;;;5510841;25;20339;-75
2024/04/19 10:50:48;;;;;;;1.67;0.30;;;;;;;;;;5517893;25;20251;-75
2024/04/19 10:53:16;;;;;;;0.75;0.20;;;;;;;;;;5489471;25;20243;-75
2024/04/19 10:55:42;;;;;;;1.13;0.40;;;;;;;;;;5486870;26;20320;-76
2024/04/19 10:58:08;;;;;;;3.55;0.35;;;;;;;;;;5465214;25;20240;-76
2024/04/19 11:00:34;;;;;;;1.33;0.35;;;;;;;;;;5514206;25;20765;-74
2024/04/19 11:03:01;;;;;;;1.27;0.30;;;;;;;;;;5515786;25;20691;-76
2024/04/19 11:05:27;;;;;;;0.55;0.30;;;;;;;;;;5517632;25;20337;-74
2024/04/19 11:07:54;;;;;;;0.85;0.20;;;;;;;;;;5480367;26;21189;-75
2024/04/19 11:10:20;;;;;;;1.40;0.20;;;;;;;;;;5485194;26;20277;-74
2024/04/19 11:12:45;;;;;;;1.67;0.20;;;;;;;;;;5510389;25;20611;-74
2024/04/19 11:15:10;;;;;;;0.82;0.20;;;;;;;;;;5504507;25;20244;-74
2024/04/19 11:17:38;;;;;;;0.40;0.17;;;;;;;;;;5478237;26;20247;-75
2024/04/19 11:20:03;;;;;;;1.23;0.20;;;;;;;;;;5466933;25;20286;-74
2024/04/19 11:22:30;;;;;;;0.70;0.10;;;;;;;;;;5522765;25;20232;-74
2024/04/19 11:24:57;;;;;;;1.25;0.20;;;;;;;;;;5539845;25;20248;-75
2024/04/19 11:27:22;;;;;;;2.05;0.10;;;;;;;;;;5512881;25;20270;-75
2024/04/19 11:29:49;;;;;;;1.45;0.20;;;;;;;;;;5513162;25;20602;-74
2024/04/19 11:32:14;;;;;;;1.77;0.30;;;;;;;;;;5519208;25;20236;-73
2024/04/19 11:34:45;;;;;;;2.15;0.10;;;;;;;;;;5522651;25;20552;-75
2024/04/19 11:37:14;;;;;;;2.95;0.10;;;;;;;;;;5509532;25;20264;-75
2024/04/19 11:39:39;;;;;;;1.45;0.17;;;;;;;;;;5457878;26;20244;-76
2024/04/19 11:42:06;;;;;;;2.28;0.10;;;;;;;;;;5524039;25;20302;-79
2024/04/19 11:44:31;;;;;;;0.70;0.00;;;;;;;;;;5509313;26;20379;-77
2024/04/19 11:47:06;;;;;;;0.30;0.10;;;;;;;;;;5478517;25;20704;-77
2024/04/19 11:49:32;;;;;;;1.65;0.10;;;;;;;;;;5516057;26;20352;-74
2024/04/19 11:51:57;;;;;;;0.20;0.10;;;;;;;;;;5516548;25;20239;-77
2024/04/19 11:54:27;;;;;;;1.67;0.10;;;;;;;;;;5474135;26;20244;-75
2024/04/19 11:56:53;;;;;;;4.03;0.10;;;;;;;;;;5494992;25;20687;-74
2024/04/19 11:59:19;;;;;;;2.17;0.10;;;;;;;;;;5511118;25;20334;-73
2024/04/19 12:01:45;;;;;;;0.57;0.10;;;;;;;;;;5507276;25;20247;-74
2024/04/19 12:04:10;;;;;;;1.83;0.20;;;;;;;;;;5509258;25;20671;-74
2024/04/19 12:06:36;;;;;;;0.52;0.25;;;;;;;;;;5517899;25;20342;-73
2024/04/19 12:09:03;;;;;;;1.52;0.20;;;;;;;;;;5479517;25;20290;-74
2024/04/19 12:11:29;;;;;;;1.00;0.20;;;;;;;;;;5479264;26;20251;-73
2024/04/19 12:13:55;;;;;;;0.95;0.25;;;;;;;;;;5513967;25;20285;-76
2024/04/19 12:16:22;;;;;;;1.75;0.32;;;;;;;;;;5509259;25;20247;-75
2024/04/19 12:18:47;;;;;;;2.03;0.40;;;;;;;;;;5486915;26;20248;-73
2024/04/19 12:21:13;;;;;;;5.32;1.17;;;;;;;;;;5516682;25;20381;-72
2024/04/19 12:23:39;;;;;;;3.92;0.45;;;;;;;;;;5513323;25;20248;-73
2024/04/19 12:26:04;;;;;;;5.07;0.70;;;;;;;;;;5519684;25;20240;-75
2024/04/19 12:28:30;;;;;;;3.28;0.70;;;;;;;;;;5517051;25;20247;-75
2024/04/19 12:30:56;;;;;;;5.38;0.80;;;;;;;;;;5514563;25;20248;-75
2024/04/19 12:33:21;;;;;;;2.78;0.60;;;;;;;;;;5477767;26;20711;-73
2024/04/19 12:35:47;;;;;;;2.63;0.70;;;;;;;;;;5518983;25;20236;-75
2024/04/19 12:38:13;;;;;;;3.20;0.60;;;;;;;;;;5518886;25;20239;-75
2024/04/19 12:40:39;;;;;;;3.95;0.90;;;;;;;;;;5518767;25;20228;-74
2024/04/19 12:43:05;;;;;;;7.35;1.00;;;;;;;;;;5496499;25;20310;-79
2024/04/19 12:45:31;;;;;;;3.70;0.80;;;;;;;;;;5514014;25;20301;-77
2024/04/19 12:48:07;;;;;;;6.53;0.98;;;;;;;;;;5524124;25;20347;-77
2024/04/19 12:50:36;;;;;;;6.68;1.30;;;;;;;;;;5517195;25;20235;-75
2024/04/19 12:53:03;;;;;;;6.82;1.60;;;;;;;;;;4729157;25;10000632;-76
2024/04/19 12:55:33;;;;;;;4.13;1.10;;;;;;;;;;5482464;26;20323;-76
2024/04/19 12:57:59;;;;;;;4.90;1.38;;;;;;;;;;5506645;25;20236;-76
2024/04/19 13:00:27;;;;;;;9.88;1.63;;;;;;;;;;5518570;25;20232;-75
2024/04/19 13:02:55;;;;;;;6.88;1.70;;;;;;;;;;5478219;26;20594;-75
2024/04/19 13:05:21;;;;;;;6.57;2.10;;;;;;;;;;5505371;25;20638;-76
2024/04/19 13:07:47;;;;;;;9.30;2.05;;;;;;;;;;5514806;25;20271;-75
2024/04/19 13:10:12;;;;;;;9.95;1.98;;;;;;;;;;5511322;25;20273;-75
2024/04/19 13:12:38;;;;;;;10.45;2.40;;;;;;;;;;5481024;25;20286;-75
2024/04/19 13:15:04;;;;;;;7.38;2.25;;;;;;;;;;5497313;25;20271;-75
2024/04/19 13:17:29;;;;;;;9.93;2.17;;;;;;;;;;5509032;25;20243;-75
2024/04/19 13:19:55;;;;;;;14.48;2.33;;;;;;;;;;5513412;25;20282;-75
2024/04/19 13:22:21;;;;;;;8.52;2.50;;;;;;;;;;5483801;25;20255;-77
2024/04/19 13:24:47;;;;;;;9.90;2.13;;;;;;;;;;5499227;25;20240;-73
2024/04/19 13:27:15;;;;;;;8.85;1.88;;;;;;;;;;5515298;25;20270;-74
2024/04/19 13:29:42;;;;;;;5.60;1.70;;;;;;;;;;5506415;25;20307;-72
2024/04/19 13:32:08;;;;;;;9.90;2.10;;;;;;;;;;5506992;25;20240;-75
2024/04/19 13:34:33;;;;;;;6.97;2.15;;;;;;;;;;5511851;25;20236;-73
2024/04/19 13:36:59;;;;;;;8.65;1.70;;;;;;;;;;5472673;26;20346;-75
2024/04/19 13:39:25;;;;;;;11.43;1.77;;;;;;;;;;5477617;26;20274;-74
2024/04/19 13:41:51;;;;;;;11.52;2.30;;;;;;;;;;5471404;26;20274;-73
2024/04/19 13:44:17;;;;;;;10.73;2.00;;;;;;;;;;5514725;25;20239;-75
2024/04/19 13:46:42;;;;;;;8.52;1.90;;;;;;;;;;5526167;25;20325;-74
2024/04/19 13:49:09;;;;;;;15.05;2.30;;;;;;;;;;5509324;25;20247;-74
2024/04/19 13:51:36;;;;;;;15.52;2.35;;;;;;;;;;5512186;25;20273;-72
2024/04/19 13:54:02;;;;;;;13.02;2.00;;;;;;;;;;5478874;25;20366;-73
2024/04/19 13:56:27;;;;;;;9.48;1.88;;;;;;;;;;5519346;25;20243;-73
2024/04/19 13:58:53;;;;;;;12.57;1.75;;;;;;;;;;5489379;25;20251;-72
2024/04/19 14:01:18;;;;;;;13.27;2.58;;;;;;;;;;5512886;25;20411;-71
2024/04/19 14:03:44;;;;;;;11.93;2.08;;;;;;;;;;5512860;25;20254;-71
2024/04/19 14:06:11;;;;;;;13.68;2.20;;;;;;;;;;5507013;25;20314;-73
2024/04/19 14:08:36;;;;;;;6.72;1.70;;;;;;;;;;5512114;25;20547;-74
2024/04/19 14:11:02;;;;;;;7.25;1.52;;;;;;;;;;5499355;25;20291;-71
2024/04/19 14:13:27;;;;;;;12.57;1.48;;;;;;;;;;5506402;25;20235;-73
2024/04/19 14:15:54;;;;;;;7.43;1.42;;;;;;;;;;5463936;25;20248;-75
2024/04/19 14:18:19;;;;;;;8.77;2.40;;;;;;;;;;5516889;25;20251;-74
2024/04/19 14:20:46;;;;;;;8.65;1.63;;;;;;;;;;5472152;26;20278;-74
2024/04/19 14:23:12;;;;;;;7.63;1.73;;;;;;;;;;5472443;26;20278;-75
2024/04/19 14:25:38;;;;;;;8.23;1.30;;;;;;;;;;5508680;25;20475;-74
2024/04/19 14:28:04;;;;;;;4.57;1.23;;;;;;;;;;5500281;25;20250;-76
2024/04/19 14:30:30;;;;;;;9.43;1.13;;;;;;;;;;5513643;25;20286;-75
2024/04/19 14:32:57;;;;;;;3.83;0.70;;;;;;;;;;5492208;25;20295;-74
2024/04/19 14:35:23;;;;;;;4.15;0.60;;;;;;;;;;5520871;25;20323;-74
2024/04/19 14:37:49;;;;;;;8.98;1.42;;;;;;;;;;5481614;25;20243;-76